sensor_id;sensor_type;location;lat;lon;timestamp;temperature;humidity
4433;DHT22;2229;48.708;9.706;2022-09-21T00:00:43;7.20;99.90
4433;DHT22;2229;48.708;9.706;2022-09-21T00:03:10;7.10;99.90
4433;DHT22;2229;48.708;9.706;2022-09-21T00:05:37;7.10;99.90
4433;DHT22;2229;48.708;9.706;2022-09-21T00:08:06;7.00;99.90
4433;DHT22;2229;48.708;9.706;2022-09-21T00:10:34;7.00;99.90
4433;DHT22;2229;48.708;9.706;2022-09-21T00:13:02;6.90;99.90
4433;DHT22;2229;48.708;9.706;2022-09-21T00:15:31;6.90;99.90
4433;DHT22;2229;48.708;9.706;2022-09-21T00:17:58;7.00;99.90
4433;DHT22;2229;48.708;9.706;2022-09-21T00:20:27;6.90;99.90
4433;DHT22;2229;48.708;9.706;2022-09-21T00:22:54;7.00;99.90
4433;DHT22;2229;48.708;9.706;2022-09-21T00:25:21;7.00;99.90
4433;DHT22;2229;48.708;9.706;2022-09-21T00:27:48;6.90;99.90
4433;DHT22;2229;48.708;9.706;2022-09-21T00:30:17;6.90;99.90
4433;DHT22;2229;48.708;9.706;2022-09-21T00:32:44;6.90;99.90
4433;DHT22;2229;48.708;9.706;2022-09-21T00:35:12;6.90;99.90
4433;DHT22;2229;48.708;9.706;2022-09-21T00:37:39;6.80;99.90
4433;DHT22;2229;48.708;9.706;2022-09-21T00:40:07;6.80;99.90
4433;DHT22;2229;48.708;9.706;2022-09-21T00:42:34;6.70;99.90
4433;DHT22;2229;48.708;9.706;2022-09-21T00:45:02;6.70;99.90
4433;DHT22;2229;48.708;9.706;2022-09-21T00:47:34;6.60;99.90
4433;DHT22;2229;48.708;9.706;2022-09-21T00:50:05;6.60;99.90
4433;DHT22;2229;48.708;9.706;2022-09-21T00:52:34;6.60;99.90
4433;DHT22;2229;48.708;9.706;2022-09-21T00:55:07;6.60;99.90
4433;DHT22;2229;48.708;9.706;2022-09-21T00:57:37;6.60;99.90
4433;DHT22;2229;48.708;9.706;2022-09-21T01:00:07;6.60;99.90
4433;DHT22;2229;48.708;9.706;2022-09-21T01:02:36;6.60;99.90
4433;DHT22;2229;48.708;9.706;2022-09-21T01:05:05;6.60;99.90
4433;DHT22;2229;48.708;9.706;2022-09-21T01:07:35;6.60;99.90
4433;DHT22;2229;48.708;9.706;2022-09-21T01:10:06;6.60;99.90
4433;DHT22;2229;48.708;9.706;2022-09-21T01:12:50;6.60;99.90
4433;DHT22;2229;48.708;9.706;2022-09-21T01:15:28;6.60;99.90
4433;DHT22;2229;48.708;9.706;2022-09-21T01:18:07;6.50;99.90
4433;DHT22;2229;48.708;9.706;2022-09-21T01:24:13;6.50;99.90
4433;DHT22;2229;48.708;9.706;2022-09-21T01:26:58;6.50;99.90
4433;DHT22;2229;48.708;9.706;2022-09-21T01:29:33;6.50;99.90
4433;DHT22;2229;48.708;9.706;2022-09-21T01:32:07;6.50;99.90
4433;DHT22;2229;48.708;9.706;2022-09-21T01:34:40;6.50;99.90
4433;DHT22;2229;48.708;9.706;2022-09-21T01:37:12;6.50;99.90
4433;DHT22;2229;48.708;9.706;2022-09-21T01:39:43;6.40;99.90
4433;DHT22;2229;48.708;9.706;2022-09-21T01:42:12;6.40;99.90
4433;DHT22;2229;48.708;9.706;2022-09-21T01:44:43;6.40;99.90
4433;DHT22;2229;48.708;9.706;2022-09-21T01:47:12;6.40;99.90
4433;DHT22;2229;48.708;9.706;2022-09-21T01:49:43;6.40;99.90
4433;DHT22;2229;48.708;9.706;2022-09-21T01:52:18;6.40;99.90
4433;DHT22;2229;48.708;9.706;2022-09-21T01:54:50;6.30;99.90
4433;DHT22;2229;48.708;9.706;2022-09-21T01:57:24;6.30;99.90
4433;DHT22;2229;48.708;9.706;2022-09-21T01:59:55;6.20;99.90
4433;DHT22;2229;48.708;9.706;2022-09-21T02:02:26;6.20;99.90
4433;DHT22;2229;48.708;9.706;2022-09-21T02:04:54;6.20;99.90
4433;DHT22;2229;48.708;9.706;2022-09-21T02:07:23;6.20;99.90
4433;DHT22;2229;48.708;9.706;2022-09-21T02:09:51;6.10;99.90
4433;DHT22;2229;48.708;9.706;2022-09-21T02:12:19;6.20;99.90
4433;DHT22;2229;48.708;9.706;2022-09-21T02:14:47;6.10;99.90
4433;DHT22;2229;48.708;9.706;2022-09-21T02:17:29;6.10;99.90
4433;DHT22;2229;48.708;9.706;2022-09-21T02:20:06;6.10;99.90
4433;DHT22;2229;48.708;9.706;2022-09-21T02:22:42;6.10;99.90
4433;DHT22;2229;48.708;9.706;2022-09-21T02:25:15;6.10;99.90
4433;DHT22;2229;48.708;9.706;2022-09-21T02:27:50;6.10;99.90
4433;DHT22;2229;48.708;9.706;2022-09-21T02:30:21;6.10;99.90
4433;DHT22;2229;48.708;9.706;2022-09-21T02:32:56;6.10;99.90
4433;DHT22;2229;48.708;9.706;2022-09-21T02:35:31;6.10;99.90
4433;DHT22;2229;48.708;9.706;2022-09-21T02:38:07;6.20;99.90
4433;DHT22;2229;48.708;9.706;2022-09-21T02:40:39;6.30;99.90
4433;DHT22;2229;48.708;9.706;2022-09-21T02:43:13;6.30;99.90
4433;DHT22;2229;48.708;9.706;2022-09-21T02:45:45;6.30;99.90
4433;DHT22;2229;48.708;9.706;2022-09-21T02:48:19;6.20;99.90
4433;DHT22;2229;48.708;9.706;2022-09-21T02:50:57;6.20;99.90
4433;DHT22;2229;48.708;9.706;2022-09-21T02:53:34;6.20;99.90
4433;DHT22;2229;48.708;9.706;2022-09-21T02:56:04;6.10;99.90
4433;DHT22;2229;48.708;9.706;2022-09-21T02:58:35;6.10;99.90
4433;DHT22;2229;48.708;9.706;2022-09-21T03:01:05;6.10;99.90
4433;DHT22;2229;48.708;9.706;2022-09-21T03:03:34;6.00;99.90
4433;DHT22;2229;48.708;9.706;2022-09-21T03:06:02;6.00;99.90
4433;DHT22;2229;48.708;9.706;2022-09-21T03:08:29;6.00;99.90
4433;DHT22;2229;48.708;9.706;2022-09-21T03:10:56;6.00;99.90
4433;DHT22;2229;48.708;9.706;2022-09-21T03:13:23;6.00;99.90
4433;DHT22;2229;48.708;9.706;2022-09-21T03:15:58;5.90;99.90
4433;DHT22;2229;48.708;9.706;2022-09-21T03:18:25;5.90;99.90
4433;DHT22;2229;48.708;9.706;2022-09-21T03:20:54;5.80;99.90
4433;DHT22;2229;48.708;9.706;2022-09-21T03:23:21;5.80;99.90
4433;DHT22;2229;48.708;9.706;2022-09-21T03:25:48;5.80;99.90
4433;DHT22;2229;48.708;9.706;2022-09-21T03:28:17;5.90;99.90
4433;DHT22;2229;48.708;9.706;2022-09-21T03:30:44;5.90;99.90
4433;DHT22;2229;48.708;9.706;2022-09-21T03:33:12;5.90;99.90
4433;DHT22;2229;48.708;9.706;2022-09-21T03:35:39;5.90;99.90
4433;DHT22;2229;48.708;9.706;2022-09-21T03:38:08;5.80;99.90
4433;DHT22;2229;48.708;9.706;2022-09-21T03:40:36;5.80;99.90
4433;DHT22;2229;48.708;9.706;2022-09-21T03:43:03;5.70;99.90
4433;DHT22;2229;48.708;9.706;2022-09-21T03:45:30;5.70;99.90
4433;DHT22;2229;48.708;9.706;2022-09-21T03:47:59;5.60;99.90
4433;DHT22;2229;48.708;9.706;2022-09-21T03:50:38;5.60;99.90
4433;DHT22;2229;48.708;9.706;2022-09-21T03:53:05;5.60;99.90
4433;DHT22;2229;48.708;9.706;2022-09-21T03:55:34;5.50;99.90
4433;DHT22;2229;48.708;9.706;2022-09-21T03:58:02;5.50;99.90
4433;DHT22;2229;48.708;9.706;2022-09-21T04:00:29;5.50;99.90
4433;DHT22;2229;48.708;9.706;2022-09-21T04:02:57;5.50;99.90
4433;DHT22;2229;48.708;9.706;2022-09-21T04:05:24;5.40;99.90
4433;DHT22;2229;48.708;9.706;2022-09-21T04:07:53;5.40;99.90
4433;DHT22;2229;48.708;9.706;2022-09-21T04:10:22;5.40;99.90
4433;DHT22;2229;48.708;9.706;2022-09-21T04:13:00;5.40;99.90
4433;DHT22;2229;48.708;9.706;2022-09-21T04:15:28;5.40;99.90
4433;DHT22;2229;48.708;9.706;2022-09-21T04:17:56;5.40;99.90
4433;DHT22;2229;48.708;9.706;2022-09-21T04:20:30;5.40;99.90
4433;DHT22;2229;48.708;9.706;2022-09-21T04:22:57;5.40;99.90
4433;DHT22;2229;48.708;9.706;2022-09-21T04:25:24;5.40;99.90
4433;DHT22;2229;48.708;9.706;2022-09-21T04:27:52;5.30;99.90
4433;DHT22;2229;48.708;9.706;2022-09-21T04:30:21;5.30;99.90
4433;DHT22;2229;48.708;9.706;2022-09-21T04:32:48;5.30;99.90
4433;DHT22;2229;48.708;9.706;2022-09-21T04:35:15;5.30;99.90
4433;DHT22;2229;48.708;9.706;2022-09-21T04:37:43;5.30;99.90
4433;DHT22;2229;48.708;9.706;2022-09-21T04:40:10;5.30;99.90
4433;DHT22;2229;48.708;9.706;2022-09-21T04:42:37;5.30;99.90
4433;DHT22;2229;48.708;9.706;2022-09-21T04:45:05;5.30;99.90
4433;DHT22;2229;48.708;9.706;2022-09-21T04:47:35;5.30;99.90
4433;DHT22;2229;48.708;9.706;2022-09-21T04:50:02;5.30;99.90
4433;DHT22;2229;48.708;9.706;2022-09-21T04:52:29;5.30;99.90
4433;DHT22;2229;48.708;9.706;2022-09-21T04:54:56;5.40;99.90
4433;DHT22;2229;48.708;9.706;2022-09-21T04:57:24;5.40;99.90
4433;DHT22;2229;48.708;9.706;2022-09-21T04:59:52;5.40;99.90
4433;DHT22;2229;48.708;9.706;2022-09-21T05:02:19;5.40;99.90
4433;DHT22;2229;48.708;9.706;2022-09-21T05:04:48;5.40;99.90
4433;DHT22;2229;48.708;9.706;2022-09-21T05:07:16;5.40;99.90
4433;DHT22;2229;48.708;9.706;2022-09-21T05:09:43;5.40;99.90
4433;DHT22;2229;48.708;9.706;2022-09-21T05:12:27;5.40;99.90
4433;DHT22;2229;48.708;9.706;2022-09-21T05:14:55;5.30;99.90
4433;DHT22;2229;48.708;9.706;2022-09-21T05:17:22;5.30;99.90
4433;DHT22;2229;48.708;9.706;2022-09-21T05:19:51;5.30;99.90
4433;DHT22;2229;48.708;9.706;2022-09-21T05:22:19;5.30;99.90
4433;DHT22;2229;48.708;9.706;2022-09-21T05:24:47;5.30;99.90
4433;DHT22;2229;48.708;9.706;2022-09-21T05:27:14;5.40;99.90
4433;DHT22;2229;48.708;9.706;2022-09-21T05:29:42;5.30;99.90
4433;DHT22;2229;48.708;9.706;2022-09-21T05:32:15;5.30;99.90
4433;DHT22;2229;48.708;9.706;2022-09-21T05:34:53;5.30;99.90
4433;DHT22;2229;48.708;9.706;2022-09-21T05:37:38;5.30;99.90
4433;DHT22;2229;48.708;9.706;2022-09-21T05:40:09;5.40;99.90
4433;DHT22;2229;48.708;9.706;2022-09-21T05:42:38;5.40;99.90
4433;DHT22;2229;48.708;9.706;2022-09-21T05:45:06;5.40;99.90
4433;DHT22;2229;48.708;9.706;2022-09-21T05:47:37;5.40;99.90
4433;DHT22;2229;48.708;9.706;2022-09-21T05:50:23;5.50;99.90
4433;DHT22;2229;48.708;9.706;2022-09-21T05:53:01;5.60;99.90
4433;DHT22;2229;48.708;9.706;2022-09-21T05:55:38;5.70;99.90
4433;DHT22;2229;48.708;9.706;2022-09-21T05:58:16;5.70;99.90
4433;DHT22;2229;48.708;9.706;2022-09-21T06:00:53;5.80;99.90
4433;DHT22;2229;48.708;9.706;2022-09-21T06:03:27;5.90;99.90
4433;DHT22;2229;48.708;9.706;2022-09-21T06:06:17;6.00;99.90
4433;DHT22;2229;48.708;9.706;2022-09-21T06:08:45;6.10;99.90
4433;DHT22;2229;48.708;9.706;2022-09-21T06:11:13;6.10;99.90
4433;DHT22;2229;48.708;9.706;2022-09-21T06:13:40;6.20;99.90
4433;DHT22;2229;48.708;9.706;2022-09-21T06:16:08;6.30;99.90
4433;DHT22;2229;48.708;9.706;2022-09-21T06:18:36;6.40;99.90
4433;DHT22;2229;48.708;9.706;2022-09-21T06:21:05;6.50;99.90
4433;DHT22;2229;48.708;9.706;2022-09-21T06:23:34;6.60;99.90
4433;DHT22;2229;48.708;9.706;2022-09-21T06:26:01;6.70;99.90
4433;DHT22;2229;48.708;9.706;2022-09-21T06:28:29;6.80;99.90
4433;DHT22;2229;48.708;9.706;2022-09-21T06:30:57;6.90;99.90
4433;DHT22;2229;48.708;9.706;2022-09-21T06:33:47;6.90;99.90
4433;DHT22;2229;48.708;9.706;2022-09-21T06:36:15;7.10;99.90
4433;DHT22;2229;48.708;9.706;2022-09-21T06:38:44;7.10;99.90
4433;DHT22;2229;48.708;9.706;2022-09-21T06:41:11;7.30;99.90
4433;DHT22;2229;48.708;9.706;2022-09-21T06:43:39;7.30;99.90
4433;DHT22;2229;48.708;9.706;2022-09-21T06:46:06;7.50;99.90
4433;DHT22;2229;48.708;9.706;2022-09-21T06:48:33;7.60;99.90
4433;DHT22;2229;48.708;9.706;2022-09-21T06:51:02;7.70;99.90
4433;DHT22;2229;48.708;9.706;2022-09-21T06:53:31;7.70;99.90
4433;DHT22;2229;48.708;9.706;2022-09-21T06:56:05;7.90;99.90
4433;DHT22;2229;48.708;9.706;2022-09-21T06:58:33;8.00;99.90
4433;DHT22;2229;48.708;9.706;2022-09-21T07:01:04;8.10;99.90
4433;DHT22;2229;48.708;9.706;2022-09-21T07:03:36;8.20;99.90
4433;DHT22;2229;48.708;9.706;2022-09-21T07:06:03;8.40;99.90
4433;DHT22;2229;48.708;9.706;2022-09-21T07:08:31;8.50;99.90
4433;DHT22;2229;48.708;9.706;2022-09-21T07:11:02;8.60;99.90
4433;DHT22;2229;48.708;9.706;2022-09-21T07:13:32;8.70;99.90
4433;DHT22;2229;48.708;9.706;2022-09-21T07:16:03;8.90;99.90
4433;DHT22;2229;48.708;9.706;2022-09-21T07:18:30;9.00;99.90
4433;DHT22;2229;48.708;9.706;2022-09-21T07:21:01;9.20;99.90
4433;DHT22;2229;48.708;9.706;2022-09-21T07:23:29;9.40;99.90
4433;DHT22;2229;48.708;9.706;2022-09-21T07:26:00;9.50;99.90
4433;DHT22;2229;48.708;9.706;2022-09-21T07:28:29;9.70;99.90
4433;DHT22;2229;48.708;9.706;2022-09-21T07:30:56;9.90;99.90
4433;DHT22;2229;48.708;9.706;2022-09-21T07:33:23;10.20;99.90
4433;DHT22;2229;48.708;9.706;2022-09-21T07:35:51;10.50;99.90
4433;DHT22;2229;48.708;9.706;2022-09-21T07:38:19;10.80;99.90
4433;DHT22;2229;48.708;9.706;2022-09-21T07:40:46;11.10;99.90
4433;DHT22;2229;48.708;9.706;2022-09-21T07:43:14;11.40;99.90
4433;DHT22;2229;48.708;9.706;2022-09-21T07:45:42;11.80;99.90
4433;DHT22;2229;48.708;9.706;2022-09-21T07:48:12;12.30;99.90
4433;DHT22;2229;48.708;9.706;2022-09-21T07:50:40;12.70;99.90
4433;DHT22;2229;48.708;9.706;2022-09-21T07:53:13;13.10;99.90
4433;DHT22;2229;48.708;9.706;2022-09-21T07:55:42;13.50;99.90
4433;DHT22;2229;48.708;9.706;2022-09-21T07:58:09;13.90;99.90
4433;DHT22;2229;48.708;9.706;2022-09-21T08:00:58;14.20;99.90
4433;DHT22;2229;48.708;9.706;2022-09-21T08:03:25;14.60;99.90
4433;DHT22;2229;48.708;9.706;2022-09-21T08:05:57;14.90;99.90
4433;DHT22;2229;48.708;9.706;2022-09-21T08:08:25;15.20;99.90
4433;DHT22;2229;48.708;9.706;2022-09-21T08:10:52;15.40;99.30
4433;DHT22;2229;48.708;9.706;2022-09-21T08:13:26;15.50;98.50
4433;DHT22;2229;48.708;9.706;2022-09-21T08:15:58;15.70;98.10
4433;DHT22;2229;48.708;9.706;2022-09-21T08:18:25;15.90;97.10
4433;DHT22;2229;48.708;9.706;2022-09-21T08:20:53;16.10;96.40
4433;DHT22;2229;48.708;9.706;2022-09-21T08:23:21;16.50;95.80
4433;DHT22;2229;48.708;9.706;2022-09-21T08:26:11;16.50;95.40
4433;DHT22;2229;48.708;9.706;2022-09-21T08:28:43;16.70;94.10
4433;DHT22;2229;48.708;9.706;2022-09-21T08:31:14;16.90;93.60
4433;DHT22;2229;48.708;9.706;2022-09-21T08:33:41;17.10;93.20
4433;DHT22;2229;48.708;9.706;2022-09-21T08:36:08;17.40;92.20
4433;DHT22;2229;48.708;9.706;2022-09-21T08:38:37;17.60;91.40
4433;DHT22;2229;48.708;9.706;2022-09-21T08:41:13;17.70;90.80
4433;DHT22;2229;48.708;9.706;2022-09-21T08:43:47;17.90;90.00
4433;DHT22;2229;48.708;9.706;2022-09-21T08:46:21;18.10;89.00
4433;DHT22;2229;48.708;9.706;2022-09-21T08:48:54;18.20;87.90
4433;DHT22;2229;48.708;9.706;2022-09-21T08:51:24;18.40;86.80
4433;DHT22;2229;48.708;9.706;2022-09-21T08:53:56;18.50;85.80
4433;DHT22;2229;48.708;9.706;2022-09-21T08:56:28;18.80;84.10
4433;DHT22;2229;48.708;9.706;2022-09-21T08:58:55;18.60;81.50
4433;DHT22;2229;48.708;9.706;2022-09-21T09:01:32;18.60;81.30
4433;DHT22;2229;48.708;9.706;2022-09-21T09:04:19;18.70;82.00
4433;DHT22;2229;48.708;9.706;2022-09-21T09:07:00;18.90;80.80
4433;DHT22;2229;48.708;9.706;2022-09-21T09:09:48;18.90;78.40
4433;DHT22;2229;48.708;9.706;2022-09-21T09:12:33;18.80;79.00
4433;DHT22;2229;48.708;9.706;2022-09-21T09:15:19;18.80;78.40
4433;DHT22;2229;48.708;9.706;2022-09-21T09:17:56;18.90;76.70
4433;DHT22;2229;48.708;9.706;2022-09-21T09:20:28;19.10;74.60
4433;DHT22;2229;48.708;9.706;2022-09-21T09:23:05;19.20;76.20
4433;DHT22;2229;48.708;9.706;2022-09-21T09:25:37;19.50;77.20
4433;DHT22;2229;48.708;9.706;2022-09-21T09:28:16;19.70;74.90
4433;DHT22;2229;48.708;9.706;2022-09-21T09:30:51;19.70;73.70
4433;DHT22;2229;48.708;9.706;2022-09-21T09:33:29;19.90;74.20
4433;DHT22;2229;48.708;9.706;2022-09-21T09:36:03;20.00;72.60
4433;DHT22;2229;48.708;9.706;2022-09-21T09:38:37;20.00;69.80
4433;DHT22;2229;48.708;9.706;2022-09-21T09:41:19;19.90;68.80
4433;DHT22;2229;48.708;9.706;2022-09-21T09:43:58;19.90;71.20
4433;DHT22;2229;48.708;9.706;2022-09-21T09:46:34;20.20;72.70
4433;DHT22;2229;48.708;9.706;2022-09-21T09:49:18;20.30;68.30
4433;DHT22;2229;48.708;9.706;2022-09-21T09:51:52;20.40;68.70
4433;DHT22;2229;48.708;9.706;2022-09-21T09:54:22;20.50;69.30
4433;DHT22;2229;48.708;9.706;2022-09-21T09:56:53;20.40;67.10
4433;DHT22;2229;48.708;9.706;2022-09-21T09:59:25;20.20;66.60
4433;DHT22;2229;48.708;9.706;2022-09-21T10:02:01;20.20;66.70
4433;DHT22;2229;48.708;9.706;2022-09-21T10:04:31;20.20;67.70
4433;DHT22;2229;48.708;9.706;2022-09-21T10:06:59;20.40;68.10
4433;DHT22;2229;48.708;9.706;2022-09-21T10:09:28;20.70;68.80
4433;DHT22;2229;48.708;9.706;2022-09-21T10:11:58;21.00;67.30
4433;DHT22;2229;48.708;9.706;2022-09-21T10:14:30;21.10;67.10
4433;DHT22;2229;48.708;9.706;2022-09-21T10:17:03;21.20;66.40
4433;DHT22;2229;48.708;9.706;2022-09-21T10:19:32;21.40;65.30
4433;DHT22;2229;48.708;9.706;2022-09-21T10:22:01;21.60;64.70
4433;DHT22;2229;48.708;9.706;2022-09-21T10:24:32;21.80;64.90
4433;DHT22;2229;48.708;9.706;2022-09-21T10:27:12;21.80;64.40
4433;DHT22;2229;48.708;9.706;2022-09-21T10:29:46;21.70;63.70
4433;DHT22;2229;48.708;9.706;2022-09-21T10:32:22;21.60;62.70
4433;DHT22;2229;48.708;9.706;2022-09-21T10:35:11;21.30;64.20
4433;DHT22;2229;48.708;9.706;2022-09-21T10:37:40;21.20;64.60
4433;DHT22;2229;48.708;9.706;2022-09-21T10:40:23;20.90;63.10
4433;DHT22;2229;48.708;9.706;2022-09-21T10:42:52;20.60;64.00
4433;DHT22;2229;48.708;9.706;2022-09-21T10:45:22;20.40;63.90
4433;DHT22;2229;48.708;9.706;2022-09-21T10:48:07;20.20;64.50
4433;DHT22;2229;48.708;9.706;2022-09-21T10:50:41;19.90;65.10
4433;DHT22;2229;48.708;9.706;2022-09-21T10:53:21;19.90;65.50
4433;DHT22;2229;48.708;9.706;2022-09-21T10:55:55;19.90;65.50
4433;DHT22;2229;48.708;9.706;2022-09-21T10:58:23;19.80;65.80
4433;DHT22;2229;48.708;9.706;2022-09-21T11:00:53;19.70;65.00
4433;DHT22;2229;48.708;9.706;2022-09-21T11:03:37;19.40;64.40
4433;DHT22;2229;48.708;9.706;2022-09-21T11:06:20;19.30;64.70
4433;DHT22;2229;48.708;9.706;2022-09-21T11:08:52;19.30;63.80
4433;DHT22;2229;48.708;9.706;2022-09-21T11:11:34;19.10;65.20
4433;DHT22;2229;48.708;9.706;2022-09-21T11:14:12;19.00;66.30
4433;DHT22;2229;48.708;9.706;2022-09-21T11:16:46;18.90;66.70
4433;DHT22;2229;48.708;9.706;2022-09-21T11:19:21;18.90;66.40
4433;DHT22;2229;48.708;9.706;2022-09-21T11:22:02;18.80;66.10
4433;DHT22;2229;48.708;9.706;2022-09-21T11:24:38;18.70;65.50
4433;DHT22;2229;48.708;9.706;2022-09-21T11:27:12;18.60;65.80
4433;DHT22;2229;48.708;9.706;2022-09-21T11:29:49;18.60;66.70
4433;DHT22;2229;48.708;9.706;2022-09-21T11:32:39;18.70;66.90
4433;DHT22;2229;48.708;9.706;2022-09-21T11:35:22;18.30;65.60
4433;DHT22;2229;48.708;9.706;2022-09-21T11:38:07;18.60;65.90
4433;DHT22;2229;48.708;9.706;2022-09-21T11:43:49;18.50;66.40
4433;DHT22;2229;48.708;9.706;2022-09-21T11:46:23;18.50;66.30
4433;DHT22;2229;48.708;9.706;2022-09-21T11:49:04;18.30;64.10
4433;DHT22;2229;48.708;9.706;2022-09-21T11:51:44;18.20;63.60
4433;DHT22;2229;48.708;9.706;2022-09-21T11:54:41;18.00;63.20
4433;DHT22;2229;48.708;9.706;2022-09-21T11:57:15;17.80;64.10
4433;DHT22;2229;48.708;9.706;2022-09-21T12:03:25;17.60;65.50
4433;DHT22;2229;48.708;9.706;2022-09-21T12:06:09;17.50;63.80
4433;DHT22;2229;48.708;9.706;2022-09-21T12:08:53;17.60;65.60
4433;DHT22;2229;48.708;9.706;2022-09-21T12:11:30;17.70;66.10
4433;DHT22;2229;48.708;9.706;2022-09-21T12:14:03;17.80;67.00
4433;DHT22;2229;48.708;9.706;2022-09-21T12:16:38;17.80;67.00
4433;DHT22;2229;48.708;9.706;2022-09-21T12:19:12;17.70;67.30
4433;DHT22;2229;48.708;9.706;2022-09-21T12:21:46;17.60;67.60
4433;DHT22;2229;48.708;9.706;2022-09-21T12:24:18;17.50;67.80
4433;DHT22;2229;48.708;9.706;2022-09-21T12:26:52;17.30;68.10
4433;DHT22;2229;48.708;9.706;2022-09-21T12:29:26;17.20;68.80
4433;DHT22;2229;48.708;9.706;2022-09-21T12:32:00;17.00;69.00
4433;DHT22;2229;48.708;9.706;2022-09-21T12:34:34;16.90;69.10
4433;DHT22;2229;48.708;9.706;2022-09-21T12:37:08;16.70;69.50
4433;DHT22;2229;48.708;9.706;2022-09-21T12:39:42;16.60;70.00
4433;DHT22;2229;48.708;9.706;2022-09-21T12:42:23;16.50;70.10
4433;DHT22;2229;48.708;9.706;2022-09-21T12:44:54;16.50;70.40
4433;DHT22;2229;48.708;9.706;2022-09-21T12:47:27;16.40;70.10
4433;DHT22;2229;48.708;9.706;2022-09-21T12:49:58;16.40;70.10
4433;DHT22;2229;48.708;9.706;2022-09-21T12:52:28;16.50;68.50
4433;DHT22;2229;48.708;9.706;2022-09-21T12:55:00;16.60;66.40
4433;DHT22;2229;48.708;9.706;2022-09-21T12:57:38;16.80;66.20
4433;DHT22;2229;48.708;9.706;2022-09-21T13:00:11;17.00;65.70
4433;DHT22;2229;48.708;9.706;2022-09-21T13:02:44;17.20;65.90
4433;DHT22;2229;48.708;9.706;2022-09-21T13:05:15;17.40;65.00
4433;DHT22;2229;48.708;9.706;2022-09-21T13:07:58;17.50;64.60
4433;DHT22;2229;48.708;9.706;2022-09-21T13:10:37;17.50;64.10
4433;DHT22;2229;48.708;9.706;2022-09-21T13:13:24;17.60;64.20
4433;DHT22;2229;48.708;9.706;2022-09-21T13:15:53;17.70;63.70
4433;DHT22;2229;48.708;9.706;2022-09-21T13:18:25;17.80;64.00
4433;DHT22;2229;48.708;9.706;2022-09-21T13:20:53;18.00;64.40
4433;DHT22;2229;48.708;9.706;2022-09-21T13:23:25;18.00;64.00
4433;DHT22;2229;48.708;9.706;2022-09-21T13:26:02;18.10;64.30
4433;DHT22;2229;48.708;9.706;2022-09-21T13:29:03;18.20;63.20
4433;DHT22;2229;48.708;9.706;2022-09-21T13:31:51;18.20;62.40
4433;DHT22;2229;48.708;9.706;2022-09-21T13:34:25;17.90;62.30
4433;DHT22;2229;48.708;9.706;2022-09-21T13:37:13;17.60;63.00
4433;DHT22;2229;48.708;9.706;2022-09-21T13:39:42;17.40;63.00
4433;DHT22;2229;48.708;9.706;2022-09-21T13:42:44;17.20;64.00
4433;DHT22;2229;48.708;9.706;2022-09-21T13:45:50;17.30;64.80
4433;DHT22;2229;48.708;9.706;2022-09-21T13:48:20;17.40;64.60
4433;DHT22;2229;48.708;9.706;2022-09-21T13:50:55;17.60;63.30
4433;DHT22;2229;48.708;9.706;2022-09-21T13:53:29;17.80;63.40
4433;DHT22;2229;48.708;9.706;2022-09-21T13:56:00;18.00;63.90
4433;DHT22;2229;48.708;9.706;2022-09-21T13:58:35;18.00;63.70
4433;DHT22;2229;48.708;9.706;2022-09-21T14:01:14;18.00;62.80
4433;DHT22;2229;48.708;9.706;2022-09-21T14:03:44;17.90;62.80
4433;DHT22;2229;48.708;9.706;2022-09-21T14:06:15;17.70;63.10
4433;DHT22;2229;48.708;9.706;2022-09-21T14:08:50;17.40;63.40
4433;DHT22;2229;48.708;9.706;2022-09-21T14:11:25;17.20;63.40
4433;DHT22;2229;48.708;9.706;2022-09-21T14:14:11;16.90;62.80
4433;DHT22;2229;48.708;9.706;2022-09-21T14:16:55;16.70;62.60
4433;DHT22;2229;48.708;9.706;2022-09-21T14:22:34;16.30;64.10
4433;DHT22;2229;48.708;9.706;2022-09-21T14:28:12;16.10;65.00
4433;DHT22;2229;48.708;9.706;2022-09-21T14:30:50;16.20;64.80
4433;DHT22;2229;48.708;9.706;2022-09-21T14:33:26;16.50;64.20
4433;DHT22;2229;48.708;9.706;2022-09-21T14:35:55;16.80;63.20
4433;DHT22;2229;48.708;9.706;2022-09-21T14:38:25;17.10;62.10
4433;DHT22;2229;48.708;9.706;2022-09-21T14:40:58;17.40;63.20
4433;DHT22;2229;48.708;9.706;2022-09-21T14:43:29;17.60;62.40
4433;DHT22;2229;48.708;9.706;2022-09-21T14:46:17;17.70;62.70
4433;DHT22;2229;48.708;9.706;2022-09-21T14:48:58;17.50;62.40
4433;DHT22;2229;48.708;9.706;2022-09-21T14:51:35;17.30;62.80
4433;DHT22;2229;48.708;9.706;2022-09-21T14:54:16;17.10;63.80
4433;DHT22;2229;48.708;9.706;2022-09-21T14:57:04;16.80;64.30
4433;DHT22;2229;48.708;9.706;2022-09-21T14:59:45;16.50;64.60
4433;DHT22;2229;48.708;9.706;2022-09-21T15:02:19;16.30;65.60
4433;DHT22;2229;48.708;9.706;2022-09-21T15:05:00;16.10;65.20
4433;DHT22;2229;48.708;9.706;2022-09-21T15:07:38;15.90;65.80
4433;DHT22;2229;48.708;9.706;2022-09-21T15:10:27;15.80;66.90
4433;DHT22;2229;48.708;9.706;2022-09-21T15:13:22;16.00;67.20
4433;DHT22;2229;48.708;9.706;2022-09-21T15:16:04;16.20;66.70
4433;DHT22;2229;48.708;9.706;2022-09-21T15:18:39;16.40;66.20
4433;DHT22;2229;48.708;9.706;2022-09-21T15:21:20;16.60;65.40
4433;DHT22;2229;48.708;9.706;2022-09-21T15:23:49;16.70;63.80
4433;DHT22;2229;48.708;9.706;2022-09-21T15:26:23;16.80;62.30
4433;DHT22;2229;48.708;9.706;2022-09-21T15:28:56;16.90;62.00
4433;DHT22;2229;48.708;9.706;2022-09-21T15:31:31;16.90;61.90
4433;DHT22;2229;48.708;9.706;2022-09-21T15:33:59;17.00;61.10
4433;DHT22;2229;48.708;9.706;2022-09-21T15:36:29;17.00;59.70
4433;DHT22;2229;48.708;9.706;2022-09-21T15:38:59;17.00;59.60
4433;DHT22;2229;48.708;9.706;2022-09-21T15:41:38;16.80;59.20
4433;DHT22;2229;48.708;9.706;2022-09-21T15:44:12;16.80;59.90
4433;DHT22;2229;48.708;9.706;2022-09-21T15:46:41;16.80;59.90
4433;DHT22;2229;48.708;9.706;2022-09-21T15:49:13;16.80;60.70
4433;DHT22;2229;48.708;9.706;2022-09-21T15:51:44;16.70;60.90
4433;DHT22;2229;48.708;9.706;2022-09-21T15:54:25;16.70;60.40
4433;DHT22;2229;48.708;9.706;2022-09-21T15:56:57;16.60;60.90
4433;DHT22;2229;48.708;9.706;2022-09-21T15:59:25;16.60;61.20
4433;DHT22;2229;48.708;9.706;2022-09-21T16:01:55;16.60;61.40
4433;DHT22;2229;48.708;9.706;2022-09-21T16:04:24;16.50;61.20
4433;DHT22;2229;48.708;9.706;2022-09-21T16:07:00;16.40;61.20
4433;DHT22;2229;48.708;9.706;2022-09-21T16:09:40;16.40;60.30
4433;DHT22;2229;48.708;9.706;2022-09-21T16:12:38;16.30;60.10
4433;DHT22;2229;48.708;9.706;2022-09-21T16:15:14;16.20;60.80
4433;DHT22;2229;48.708;9.706;2022-09-21T16:17:56;16.20;60.00
4433;DHT22;2229;48.708;9.706;2022-09-21T16:20:44;16.10;60.60
4433;DHT22;2229;48.708;9.706;2022-09-21T16:23:15;16.00;59.50
4433;DHT22;2229;48.708;9.706;2022-09-21T16:25:43;16.00;59.30
4433;DHT22;2229;48.708;9.706;2022-09-21T16:28:35;15.90;59.60
4433;DHT22;2229;48.708;9.706;2022-09-21T16:31:27;15.80;59.90
4433;DHT22;2229;48.708;9.706;2022-09-21T16:34:17;15.70;60.00
4433;DHT22;2229;48.708;9.706;2022-09-21T16:36:48;15.60;60.60
4433;DHT22;2229;48.708;9.706;2022-09-21T16:39:18;15.60;61.00
4433;DHT22;2229;48.708;9.706;2022-09-21T16:41:51;15.50;61.60
4433;DHT22;2229;48.708;9.706;2022-09-21T16:44:21;15.40;62.20
4433;DHT22;2229;48.708;9.706;2022-09-21T16:46:53;15.30;62.50
4433;DHT22;2229;48.708;9.706;2022-09-21T16:49:21;15.30;62.90
4433;DHT22;2229;48.708;9.706;2022-09-21T16:51:49;15.20;63.40
4433;DHT22;2229;48.708;9.706;2022-09-21T16:54:18;15.10;64.00
4433;DHT22;2229;48.708;9.706;2022-09-21T16:56:51;15.00;64.10
4433;DHT22;2229;48.708;9.706;2022-09-21T16:59:19;14.90;64.50
4433;DHT22;2229;48.708;9.706;2022-09-21T17:01:49;14.80;65.20
4433;DHT22;2229;48.708;9.706;2022-09-21T17:04:18;14.70;66.40